Time;durP1;ratioP1;P1;durP2;ratioP2;P2;SDS_P1;SDS_P2;PMS_P1;PMS_P2;Temp;Humidity;BMP_temperature;BMP_pressure;BME280_temperature;BME280_humidity;BME280_pressure;Samples;Min_cycle;Max_cycle;Signal;HPM_P1;HPM_P2
2022/12/01 00:02:16;;;;;;;64.82;31.85;;;5.70;99.90;;;;;;5029672;28;20091;-28
2022/12/01 00:04:42;;;;;;;67.85;33.00;;;5.70;99.90;;;;;;5029428;28;20041;-28
2022/12/01 00:07:07;;;;;;;64.75;32.03;;;5.70;99.90;;;;;;5025336;28;20038;-28
2022/12/01 00:12:17;;;;;;;67.53;31.45;;;5.60;99.90;;;;;;5027989;28;20148;-28
2022/12/01 00:14:43;;;;;;;74.97;34.28;;;5.60;99.90;;;;;;5025087;28;20116;-28
2022/12/01 00:17:09;;;;;;;71.18;32.03;;;5.70;99.90;;;;;;5029192;28;20067;-28
2022/12/01 00:19:34;;;;;;;68.38;32.10;;;5.70;99.90;;;;;;5027791;28;20129;-28
2022/12/01 00:22:00;;;;;;;67.65;32.75;;;5.70;99.90;;;;;;5029510;28;20029;-28
2022/12/01 00:24:26;;;;;;;70.32;32.47;;;5.70;99.90;;;;;;5045546;28;20033;-28
2022/12/01 00:26:52;;;;;;;67.65;33.17;;;5.70;99.90;;;;;;5030851;28;20045;-28
2022/12/01 00:29:17;;;;;;;71.53;33.88;;;5.70;99.90;;;;;;5028956;28;20345;-28
2022/12/01 00:31:43;;;;;;;69.63;33.45;;;5.70;99.90;;;;;;5029248;28;20029;-28
2022/12/01 00:34:22;;;;;;;76.20;34.15;;;5.70;99.90;;;;;;5025905;28;20042;-28
2022/12/01 00:36:47;;;;;;;69.03;32.88;;;5.70;99.90;;;;;;5024495;28;20041;-28
2022/12/01 00:39:13;;;;;;;75.93;34.35;;;5.70;99.90;;;;;;5028917;28;20063;-27
2022/12/01 00:41:39;;;;;;;72.40;34.83;;;5.70;99.90;;;;;;5045162;28;20033;-28
2022/12/01 00:44:05;;;;;;;78.88;34.83;;;5.70;99.90;;;;;;5029138;28;20038;-28
2022/12/01 00:46:30;;;;;;;75.85;34.08;;;5.70;99.90;;;;;;5040585;28;20114;-28
2022/12/01 00:48:56;;;;;;;84.93;35.60;;;5.70;99.90;;;;;;5029194;28;20445;-28
2022/12/01 00:51:22;;;;;;;79.15;35.35;;;5.70;99.90;;;;;;5026283;28;20288;-28
2022/12/01 00:53:47;;;;;;;79.70;36.08;;;5.70;99.90;;;;;;5027869;28;20131;-28
2022/12/01 00:56:13;;;;;;;82.35;34.97;;;5.70;99.90;;;;;;5028464;28;20116;-28
2022/12/01 00:58:39;;;;;;;78.25;35.42;;;5.70;99.90;;;;;;5028570;28;20491;-28
2022/12/01 01:01:05;;;;;;;81.63;34.75;;;5.70;99.90;;;;;;5029185;28;20034;-28
2022/12/01 01:03:32;;;;;;;91.95;37.38;;;5.70;99.90;;;;;;5027983;28;20061;-28
2022/12/01 01:06:09;;;;;;;85.03;36.78;;;5.70;99.90;;;;;;5023887;28;20036;-28
2022/12/01 01:08:35;;;;;;;84.63;36.47;;;5.70;99.90;;;;;;5027540;28;20033;-28
2022/12/01 01:11:01;;;;;;;83.38;36.40;;;5.70;99.90;;;;;;5027990;28;20037;-28
2022/12/01 01:13:28;;;;;;;91.82;37.33;;;5.70;99.90;;;;;;5011738;28;20033;-28
2022/12/01 01:16:03;;;;;;;85.97;35.30;;;5.70;99.90;;;;;;5028400;28;20095;-28
2022/12/01 01:18:29;;;;;;;84.30;36.15;;;5.70;99.90;;;;;;5025568;28;20049;-28
2022/12/01 01:20:57;;;;;;;82.97;35.50;;;5.70;99.90;;;;;;5012567;28;20482;-28
2022/12/01 01:23:23;;;;;;;83.03;35.78;;;5.70;99.90;;;;;;5032452;28;20034;-28
2022/12/01 01:25:49;;;;;;;81.13;35.72;;;5.70;99.90;;;;;;5042076;28;20394;-28
2022/12/01 01:28:15;;;;;;;93.82;39.65;;;5.70;99.90;;;;;;5032648;28;20037;-27
2022/12/01 01:30:40;;;;;;;87.00;38.00;;;5.70;99.90;;;;;;5029151;28;20040;-28
2022/12/01 01:33:06;;;;;;;82.38;36.38;;;5.60;99.90;;;;;;5024585;28;20037;-28
2022/12/01 01:35:32;;;;;;;93.20;39.00;;;5.60;99.90;;;;;;5032053;28;20072;-28
2022/12/01 01:37:57;;;;;;;86.15;36.97;;;5.60;99.90;;;;;;5023336;28;20407;-28
2022/12/01 01:40:23;;;;;;;91.50;38.70;;;5.60;99.90;;;;;;5028047;28;20040;-28
2022/12/01 01:42:49;;;;;;;85.18;35.92;;;5.60;99.90;;;;;;5032398;28;20068;-28
2022/12/01 01:45:21;;;;;;;89.20;38.00;;;5.60;99.90;;;;;;5029038;28;20570;-28
2022/12/01 01:47:48;;;;;;;100.47;39.80;;;5.60;99.90;;;;;;5032082;28;20408;-28
2022/12/01 01:50:19;;;;;;;87.90;36.47;;;5.60;99.90;;;;;;5046904;28;20068;-28
2022/12/01 01:52:50;;;;;;;97.28;38.50;;;5.60;99.90;;;;;;5031876;28;20041;-28
2022/12/01 01:55:16;;;;;;;86.75;36.67;;;5.60;99.90;;;;;;5048001;28;20029;-28
2022/12/01 01:57:43;;;;;;;94.57;38.15;;;5.60;99.90;;;;;;5031847;28;20038;-28
2022/12/01 02:00:12;;;;;;;88.78;37.03;;;5.60;99.90;;;;;;5031804;28;20037;-28
2022/12/01 02:02:43;;;;;;;84.68;36.17;;;5.60;99.90;;;;;;5029659;28;20042;-28
2022/12/01 02:05:15;;;;;;;90.85;38.35;;;5.60;99.90;;;;;;5048488;28;20095;-28
2022/12/01 02:07:41;;;;;;;95.18;39.17;;;5.60;99.90;;;;;;5030389;28;20049;-28
2022/12/01 02:10:10;;;;;;;93.20;38.25;;;5.60;99.90;;;;;;5022971;28;20464;-28
2022/12/01 02:12:57;;;;;;;96.20;39.38;;;5.60;99.90;;;;;;5042728;28;20037;-28
2022/12/01 02:15:37;;;;;;;96.30;38.58;;;5.60;99.90;;;;;;5028001;28;20397;-28
2022/12/01 02:18:11;;;;;;;96.05;38.70;;;5.60;99.90;;;;;;5043898;28;20034;-28
2022/12/01 02:21:20;;;;;;;96.80;38.70;;;5.60;99.90;;;;;;5015699;28;20056;-28
2022/12/01 02:24:23;;;;;;;96.32;38.05;;;5.60;99.90;;;;;;5029947;28;20041;-28
2022/12/01 02:26:49;;;;;;;91.88;38.25;;;5.60;99.90;;;;;;5022554;28;20045;-28
2022/12/01 02:29:37;;;;;;;97.00;39.72;;;5.60;99.90;;;;;;5011522;28;20040;-28
2022/12/01 02:32:09;;;;;;;95.68;38.47;;;5.60;99.90;;;;;;5031644;28;20040;-28
2022/12/01 02:34:55;;;;;;;93.70;38.60;;;5.60;99.90;;;;;;5031266;28;20076;-28
2022/12/01 02:37:24;;;;;;;94.28;39.03;;;5.60;99.90;;;;;;5028517;28;20041;-28
2022/12/01 02:40:01;;;;;;;96.07;39.53;;;5.60;99.90;;;;;;5031543;28;20041;-28
2022/12/01 02:42:53;;;;;;;100.82;42.30;;;5.60;99.90;;;;;;5031301;28;20046;-28
2022/12/01 02:45:30;;;;;;;96.75;39.97;;;5.60;99.90;;;;;;5029081;28;20550;-28
2022/12/01 02:48:00;;;;;;;97.30;39.75;;;5.60;99.90;;;;;;5026645;28;20033;-28
2022/12/01 02:50:29;;;;;;;101.05;40.28;;;5.60;99.90;;;;;;5046035;28;20044;-28
2022/12/01 02:52:55;;;;;;;93.18;41.00;;;5.60;99.90;;;;;;5029708;28;20073;-28
2022/12/01 02:55:21;;;;;;;106.43;42.20;;;5.60;99.90;;;;;;5029793;28;20144;-28
2022/12/01 02:57:47;;;;;;;96.25;40.20;;;5.60;99.90;;;;;;5017475;28;20120;-28
2022/12/01 03:00:14;;;;;;;103.15;42.17;;;5.60;99.90;;;;;;5048065;28;20379;-28
2022/12/01 03:03:01;;;;;;;95.15;41.47;;;5.60;99.90;;;;;;5023811;28;20044;-28
2022/12/01 03:05:44;;;;;;;99.30;41.65;;;5.60;99.90;;;;;;5031703;28;20041;-28
2022/12/01 03:08:38;;;;;;;100.63;41.47;;;5.60;99.90;;;;;;5027552;28;20114;-28
2022/12/01 03:11:04;;;;;;;93.63;40.28;;;5.60;99.90;;;;;;5043573;28;20032;-28
2022/12/01 03:13:44;;;;;;;94.28;42.85;;;5.60;99.90;;;;;;5027815;28;20398;-28
2022/12/01 03:16:22;;;;;;;92.75;39.55;;;5.60;99.90;;;;;;5027875;28;20186;-28
2022/12/01 03:19:03;;;;;;;92.40;40.63;;;5.60;99.90;;;;;;5027374;28;20191;-28
2022/12/01 03:21:36;;;;;;;89.53;39.45;;;5.60;99.90;;;;;;5026762;28;20411;-28
2022/12/01 03:24:23;;;;;;;93.53;42.30;;;5.60;99.90;;;;;;5021602;28;20132;-28
2022/12/01 03:26:55;;;;;;;90.00;41.35;;;5.60;99.90;;;;;;5047269;28;20406;-28
2022/12/01 03:29:37;;;;;;;95.60;42.17;;;5.60;99.90;;;;;;5047404;28;20546;-28
2022/12/01 03:32:22;;;;;;;89.50;40.38;;;5.60;99.90;;;;;;5030395;28;20137;-28
2022/12/01 03:34:51;;;;;;;92.75;40.67;;;5.60;99.90;;;;;;5043588;28;20068;-28
2022/12/01 03:37:31;;;;;;;90.30;41.13;;;5.60;99.90;;;;;;5025164;28;20096;-28
2022/12/01 03:39:58;;;;;;;90.95;41.03;;;5.60;99.90;;;;;;5028806;28;20087;-28
2022/12/01 03:42:35;;;;;;;86.88;40.80;;;5.50;99.90;;;;;;5029659;28;20037;-28
2022/12/01 03:45:06;;;;;;;92.80;40.45;;;5.60;99.90;;;;;;5046413;28;20037;-28
2022/12/01 03:47:36;;;;;;;85.93;41.63;;;5.50;99.90;;;;;;5022393;28;20628;-28
2022/12/01 03:50:04;;;;;;;83.55;40.75;;;5.50;99.90;;;;;;5030142;28;20509;-28
2022/12/01 03:52:37;;;;;;;89.47;42.17;;;5.50;99.90;;;;;;5044497;28;20033;-28
2022/12/01 03:55:19;;;;;;;89.22;41.67;;;5.50;99.90;;;;;;5027157;28;20514;-28
2022/12/01 03:57:53;;;;;;;86.45;40.58;;;5.50;99.90;;;;;;5026636;28;20050;-28
2022/12/01 04:00:20;;;;;;;83.03;41.10;;;5.50;99.90;;;;;;5014037;28;20111;-28
2022/12/01 04:02:45;;;;;;;89.00;41.33;;;5.50;99.90;;;;;;5046082;28;20041;-28
2022/12/01 04:05:11;;;;;;;87.25;40.80;;;5.60;99.90;;;;;;5028868;28;20082;-28
2022/12/01 04:07:38;;;;;;;89.50;41.45;;;5.50;99.90;;;;;;5046701;28;20121;-28
2022/12/01 04:10:05;;;;;;;88.28;40.88;;;5.60;99.90;;;;;;5025103;28;20037;-28
2022/12/01 04:12:32;;;;;;;86.68;41.05;;;5.50;99.90;;;;;;5028106;28;20042;-28
2022/12/01 04:15:10;;;;;;;89.78;42.42;;;5.50;99.90;;;;;;5030426;28;20383;-28
2022/12/01 04:17:36;;;;;;;83.35;40.00;;;5.50;99.90;;;;;;5029710;28;20376;-28
2022/12/01 04:20:03;;;;;;;82.65;41.17;;;5.60;99.90;;;;;;5029453;28;20040;-28
2022/12/01 04:22:28;;;;;;;89.47;40.58;;;5.50;99.90;;;;;;5029208;28;20045;-28
2022/12/01 04:24:54;;;;;;;83.80;39.85;;;5.50;99.90;;;;;;5030746;28;20514;-28
2022/12/01 04:27:20;;;;;;;90.47;40.75;;;5.50;99.90;;;;;;5029566;28;20037;-28
2022/12/01 04:29:46;;;;;;;81.43;41.05;;;5.50;99.90;;;;;;5029457;28;20030;-28
2022/12/01 04:32:12;;;;;;;86.70;40.70;;;5.50;99.90;;;;;;5029422;28;20033;-28
2022/12/01 04:34:38;;;;;;;92.13;41.50;;;5.50;99.90;;;;;;5046089;28;20479;-28
2022/12/01 04:37:05;;;;;;;84.53;40.35;;;5.50;99.90;;;;;;5029421;28;20037;-28
2022/12/01 04:39:31;;;;;;;82.93;41.83;;;5.50;99.90;;;;;;5021784;28;20103;-28
2022/12/01 04:41:57;;;;;;;89.50;41.22;;;5.50;99.90;;;;;;5038491;28;20033;-28
2022/12/01 04:44:23;;;;;;;90.15;42.25;;;5.50;99.90;;;;;;5028622;28;20509;-28
2022/12/01 04:46:51;;;;;;;90.40;41.13;;;5.50;99.90;;;;;;5022761;28;20124;-28
2022/12/01 04:49:18;;;;;;;86.63;39.83;;;5.50;99.90;;;;;;5046059;28;20526;-28
2022/12/01 04:51:43;;;;;;;89.65;40.83;;;5.50;99.90;;;;;;5028969;28;20041;-28
2022/12/01 04:54:09;;;;;;;88.95;42.90;;;5.50;99.90;;;;;;5027605;28;20061;-35
2022/12/01 04:56:35;;;;;;;83.43;39.83;;;5.50;99.90;;;;;;5020357;28;20037;-28
2022/12/01 04:59:01;;;;;;;79.90;38.30;;;5.40;99.90;;;;;;5031513;28;20030;-28
2022/12/01 05:01:27;;;;;;;89.45;41.63;;;5.50;99.90;;;;;;5032170;28;20064;-28
2022/12/01 05:03:52;;;;;;;86.97;40.00;;;5.50;99.90;;;;;;5043938;28;20029;-28
2022/12/01 05:06:21;;;;;;;87.45;41.28;;;5.50;99.90;;;;;;5049485;28;20068;-28
2022/12/01 05:08:47;;;;;;;89.85;40.63;;;5.50;99.90;;;;;;5028766;28;20073;-28
2022/12/01 05:11:14;;;;;;;86.82;40.58;;;5.40;99.90;;;;;;5030889;28;20038;-27
2022/12/01 05:13:42;;;;;;;83.53;39.85;;;5.40;99.90;;;;;;5025118;28;20034;-28
2022/12/01 05:16:20;;;;;;;87.78;40.58;;;5.40;99.90;;;;;;5033428;28;20073;-27
2022/12/01 05:20:55;;;;;;;88.88;40.92;;;5.40;99.90;;;;;;5032566;28;20068;-27
2022/12/01 05:21:37;;;;;;;89.18;39.55;;;5.50;99.90;;;;;;5025798;28;20076;-28
2022/12/01 05:24:04;;;;;;;81.32;40.42;;;5.40;99.90;;;;;;5046758;28;20034;-27
2022/12/01 05:26:30;;;;;;;91.95;42.05;;;5.40;99.90;;;;;;5025282;28;20125;-27
2022/12/01 05:28:55;;;;;;;91.53;41.65;;;5.40;99.90;;;;;;5025440;28;20116;-27
2022/12/01 05:31:21;;;;;;;86.32;41.42;;;5.40;99.90;;;;;;5028945;28;20095;-28
2022/12/01 05:33:47;;;;;;;89.60;41.50;;;5.40;99.90;;;;;;5025070;28;20087;-28
2022/12/01 05:36:12;;;;;;;89.13;41.17;;;5.40;99.90;;;;;;5029329;28;20033;-27
2022/12/01 05:38:38;;;;;;;91.15;41.75;;;5.40;99.90;;;;;;5039587;28;20048;-27
2022/12/01 05:41:04;;;;;;;87.55;41.47;;;5.40;99.90;;;;;;5034185;28;20037;-28
2022/12/01 05:43:30;;;;;;;89.25;41.08;;;5.40;99.90;;;;;;5042841;28;20034;-27
2022/12/01 05:45:56;;;;;;;86.43;40.70;;;5.40;99.90;;;;;;5031307;28;20402;-28
2022/12/01 05:48:22;;;;;;;83.00;38.20;;;5.40;99.90;;;;;;5049061;28;20037;-28
2022/12/01 05:50:48;;;;;;;90.13;42.30;;;5.40;99.90;;;;;;5030538;28;20150;-27
2022/12/01 05:53:14;;;;;;;90.95;41.95;;;5.30;99.90;;;;;;5029850;28;20514;-27
2022/12/01 05:55:40;;;;;;;90.80;42.72;;;5.40;99.90;;;;;;5031789;28;20037;-28
2022/12/01 05:58:06;;;;;;;93.53;41.45;;;5.40;99.90;;;;;;5029260;28;20548;-28
2022/12/01 06:00:32;;;;;;;95.82;43.60;;;5.30;99.90;;;;;;5029222;28;20052;-28
2022/12/01 06:02:58;;;;;;;92.05;43.50;;;5.40;99.90;;;;;;5027862;28;20077;-29
2022/12/01 06:05:24;;;;;;;90.85;42.60;;;5.40;99.90;;;;;;5049780;28;20061;-27
2022/12/01 06:07:50;;;;;;;97.00;43.30;;;5.40;99.90;;;;;;5019689;28;20076;-27
2022/12/01 06:10:16;;;;;;;96.78;42.20;;;5.40;99.90;;;;;;5048406;28;20030;-26
2022/12/01 06:12:41;;;;;;;94.40;44.05;;;5.40;99.90;;;;;;5030226;28;20088;-27
2022/12/01 06:15:07;;;;;;;93.80;42.78;;;5.40;99.90;;;;;;5032593;28;20478;-26
2022/12/01 06:17:33;;;;;;;89.07;41.00;;;5.40;99.90;;;;;;5048385;28;20041;-26
2022/12/01 06:19:59;;;;;;;91.75;43.88;;;5.40;99.90;;;;;;5027760;28;20412;-26
2022/12/01 06:22:25;;;;;;;91.05;41.20;;;5.40;99.90;;;;;;5046640;28;20474;-27
2022/12/01 06:24:51;;;;;;;93.82;43.10;;;5.40;99.90;;;;;;5029903;28;20065;-26
2022/12/01 06:27:17;;;;;;;92.10;42.25;;;5.40;99.90;;;;;;5033332;28;20490;-27
2022/12/01 06:29:43;;;;;;;92.10;42.95;;;5.40;99.90;;;;;;5029900;28;20036;-27
2022/12/01 06:32:08;;;;;;;96.15;42.60;;;5.40;99.90;;;;;;5025728;28;20041;-27
2022/12/01 06:34:34;;;;;;;88.38;42.80;;;5.40;99.90;;;;;;5031081;28;20045;-27
2022/12/01 06:37:00;;;;;;;93.13;43.92;;;5.40;99.90;;;;;;5030330;28;20526;-27
2022/12/01 06:39:26;;;;;;;102.00;44.30;;;5.40;99.90;;;;;;5029575;28;20065;-27
2022/12/01 06:41:51;;;;;;;96.55;42.92;;;5.40;99.90;;;;;;5032003;28;20033;-27
2022/12/01 06:44:17;;;;;;;98.88;42.65;;;5.40;99.90;;;;;;5040198;28;20519;-27
2022/12/01 06:46:43;;;;;;;101.05;43.67;;;5.40;99.90;;;;;;5033482;28;20076;-27
2022/12/01 06:49:12;;;;;;;90.57;42.38;;;5.40;99.90;;;;;;5030930;28;20038;-27
2022/12/01 06:51:38;;;;;;;93.30;42.83;;;5.40;99.90;;;;;;5042421;28;20038;-27
2022/12/01 06:54:04;;;;;;;89.13;40.97;;;5.40;99.90;;;;;;5030744;28;20033;-27
2022/12/01 06:56:30;;;;;;;93.80;42.10;;;5.30;99.90;;;;;;5030431;28;20053;-27
2022/12/01 06:58:56;;;;;;;105.72;44.97;;;5.30;99.90;;;;;;5030844;28;20099;-27
2022/12/01 07:01:22;;;;;;;98.95;43.25;;;5.30;99.90;;;;;;5029507;28;20124;-27
2022/12/01 07:03:50;;;;;;;91.07;42.15;;;5.30;99.90;;;;;;5015865;28;20560;-27
2022/12/01 07:06:17;;;;;;;95.22;44.00;;;5.30;99.90;;;;;;5028418;28;20066;-27
2022/12/01 07:08:43;;;;;;;105.53;43.80;;;5.30;99.90;;;;;;5031361;28;20069;-27
2022/12/01 07:11:12;;;;;;;91.28;42.33;;;5.30;99.90;;;;;;5020864;28;20064;-26
2022/12/01 07:13:39;;;;;;;90.75;42.30;;;5.30;99.90;;;;;;5030489;28;20374;-27
2022/12/01 07:16:06;;;;;;;97.32;44.58;;;5.30;99.90;;;;;;5031093;28;20041;-27
2022/12/01 07:18:32;;;;;;;93.68;43.13;;;5.40;99.90;;;;;;5029726;28;20418;-27
2022/12/01 07:21:03;;;;;;;97.95;43.47;;;5.40;99.90;;;;;;5039165;28;20303;-27
2022/12/01 07:23:30;;;;;;;92.80;42.17;;;5.40;99.90;;;;;;5028806;28;20053;-27
2022/12/01 07:26:08;;;;;;;95.70;42.38;;;5.40;99.90;;;;;;5042694;28;20038;-27
2022/12/01 07:28:34;;;;;;;108.03;46.05;;;5.40;99.90;;;;;;5023466;28;20049;-27
2022/12/01 07:31:01;;;;;;;105.07;45.25;;;5.40;99.90;;;;;;5041983;28;20099;-27
2022/12/01 07:33:27;;;;;;;94.15;43.30;;;5.40;99.90;;;;;;5025479;28;20029;-27
2022/12/01 07:35:53;;;;;;;92.57;41.10;;;5.40;99.90;;;;;;5020395;28;20096;-27
2022/12/01 07:38:19;;;;;;;96.50;45.42;;;5.40;99.90;;;;;;5029081;28;20446;-27
2022/12/01 07:40:44;;;;;;;102.38;43.85;;;5.40;99.90;;;;;;5029220;28;20037;-27
2022/12/01 07:43:10;;;;;;;102.65;45.65;;;5.40;99.90;;;;;;5025744;28;20045;-27
2022/12/01 07:45:36;;;;;;;92.82;43.95;;;5.40;99.90;;;;;;5017421;28;20087;-27
2022/12/01 07:48:01;;;;;;;97.78;43.80;;;5.40;99.90;;;;;;5024375;28;20500;-27
2022/12/01 07:50:27;;;;;;;93.68;40.83;;;5.40;99.90;;;;;;5039412;28;20063;-27
2022/12/01 07:52:53;;;;;;;94.65;43.53;;;5.40;99.90;;;;;;5046935;28;20127;-27
2022/12/01 07:55:18;;;;;;;105.18;43.88;;;5.40;99.90;;;;;;5030031;28;20410;-27
2022/12/01 07:57:44;;;;;;;98.75;44.65;;;5.50;99.90;;;;;;5030113;28;20033;-27
2022/12/01 08:00:11;;;;;;;98.65;44.08;;;5.50;99.90;;;;;;5027016;28;20052;-27
2022/12/01 08:02:36;;;;;;;97.80;43.50;;;5.50;99.90;;;;;;5045079;28;20124;-27
2022/12/01 08:05:02;;;;;;;100.03;42.38;;;5.50;99.90;;;;;;5030884;28;20120;-27
2022/12/01 08:07:28;;;;;;;103.80;44.15;;;5.50;99.90;;;;;;5029958;28;20042;-27
2022/12/01 08:09:53;;;;;;;94.75;44.05;;;5.50;99.90;;;;;;5046523;28;20038;-27
2022/12/01 08:12:19;;;;;;;99.32;44.35;;;5.50;99.90;;;;;;5030191;28;20025;-27
2022/12/01 08:14:45;;;;;;;100.55;44.65;;;5.60;99.90;;;;;;5034319;28;20037;-27
2022/12/01 08:17:11;;;;;;;98.00;44.75;;;5.60;99.90;;;;;;5017031;28;20041;-27
2022/12/01 08:19:36;;;;;;;105.00;45.88;;;5.60;99.90;;;;;;5017192;28;20041;-27
2022/12/01 08:22:02;;;;;;;98.13;43.72;;;5.60;99.90;;;;;;5025267;28;20038;-27
2022/12/01 08:24:28;;;;;;;101.30;45.50;;;5.60;99.90;;;;;;5018540;28;20468;-27
2022/12/01 08:26:53;;;;;;;91.15;42.22;;;5.60;99.90;;;;;;5046213;28;20498;-27
2022/12/01 08:29:19;;;;;;;99.47;43.95;;;5.60;99.90;;;;;;5042216;28;20117;-27
2022/12/01 08:31:45;;;;;;;94.88;42.08;;;5.60;99.90;;;;;;5029331;28;20048;-27
2022/12/01 08:34:10;;;;;;;97.68;42.92;;;5.70;99.90;;;;;;5042298;28;20458;-27
2022/12/01 08:36:36;;;;;;;99.55;43.10;;;5.70;99.90;;;;;;5025591;28;20069;-27
2022/12/01 08:39:03;;;;;;;92.78;43.67;;;5.70;99.90;;;;;;5029540;28;20071;-27
2022/12/01 08:41:30;;;;;;;95.97;42.13;;;5.70;99.90;;;;;;5046362;28;20041;-27
2022/12/01 08:43:58;;;;;;;96.63;42.15;;;5.70;99.90;;;;;;5029650;28;20033;-27
2022/12/01 08:46:24;;;;;;;104.47;42.53;;;5.80;99.90;;;;;;5043352;28;20399;-27
2022/12/01 08:48:50;;;;;;;99.18;45.50;;;5.80;99.90;;;;;;5029262;28;20034;-27
2022/12/01 08:51:17;;;;;;;96.07;42.50;;;5.80;99.90;;;;;;5024954;28;20044;-27
2022/12/01 08:53:48;;;;;;;94.13;42.97;;;5.80;99.90;;;;;;5029129;28;20415;-27
2022/12/01 08:56:20;;;;;;;96.78;43.30;;;5.90;99.90;;;;;;5011471;28;20120;-27
2022/12/01 08:58:46;;;;;;;94.55;43.20;;;5.90;99.90;;;;;;5045551;28;20044;-27
2022/12/01 09:01:14;;;;;;;100.65;42.90;;;5.90;99.90;;;;;;5026513;28;20095;-27
2022/12/01 09:03:41;;;;;;;93.70;42.25;;;5.90;99.90;;;;;;5041643;28;20479;-27
2022/12/01 09:06:10;;;;;;;93.60;41.90;;;6.00;99.90;;;;;;5029119;28;20048;-29
2022/12/01 09:08:36;;;;;;;95.10;41.97;;;6.00;99.90;;;;;;5022405;28;20042;-27
2022/12/01 09:11:06;;;;;;;88.05;40.42;;;6.00;99.90;;;;;;5028358;28;20394;-27
2022/12/01 09:13:33;;;;;;;88.00;41.42;;;6.10;99.90;;;;;;5024518;28;20071;-28
2022/12/01 09:16:02;;;;;;;93.18;41.45;;;6.10;99.90;;;;;;5022238;28;20045;-27
2022/12/01 09:18:29;;;;;;;96.70;42.45;;;6.10;99.90;;;;;;5029209;28;20033;-27
2022/12/01 09:20:55;;;;;;;93.55;41.17;;;6.20;99.90;;;;;;5029601;28;20037;-27
2022/12/01 09:23:22;;;;;;;93.25;41.53;;;6.20;99.90;;;;;;5028871;28;20033;-28
2022/12/01 09:25:49;;;;;;;85.85;40.45;;;6.20;99.90;;;;;;5028645;28;20045;-27
2022/12/01 09:28:16;;;;;;;86.53;38.13;;;6.20;99.90;;;;;;5022609;28;20037;-27
2022/12/01 09:30:43;;;;;;;89.47;40.35;;;6.20;99.90;;;;;;5034943;28;20529;-27
2022/12/01 09:33:10;;;;;;;87.07;40.40;;;6.30;99.90;;;;;;5045846;28;20110;-27
2022/12/01 09:35:35;;;;;;;87.22;38.40;;;6.20;99.90;;;;;;5021424;28;20029;-27
2022/12/01 09:38:03;;;;;;;86.30;38.22;;;6.20;99.90;;;;;;5028478;28;20053;-27
2022/12/01 09:40:36;;;;;;;85.25;38.30;;;6.30;99.90;;;;;;5032353;28;20160;-28
2022/12/01 09:43:05;;;;;;;88.83;39.77;;;6.30;99.90;;;;;;5022727;28;20033;-28
2022/12/01 09:45:38;;;;;;;87.22;39.15;;;6.30;99.90;;;;;;5046539;28;20508;-27
2022/12/01 09:48:09;;;;;;;82.63;37.42;;;6.30;99.90;;;;;;5045007;28;20049;-27
2022/12/01 09:50:35;;;;;;;83.25;39.17;;;6.30;99.90;;;;;;5048620;28;20040;-27
2022/12/01 09:53:14;;;;;;;81.30;38.33;;;6.40;99.90;;;;;;5041945;28;20406;-27
2022/12/01 09:55:40;;;;;;;86.30;39.10;;;6.40;99.90;;;;;;5026044;28;20033;-27
2022/12/01 09:58:15;;;;;;;80.40;37.63;;;6.40;99.90;;;;;;5048414;28;20379;-27
2022/12/01 10:00:45;;;;;;;84.18;38.85;;;6.50;99.90;;;;;;5022827;28;20049;-26
2022/12/01 10:03:34;;;;;;;85.75;38.28;;;6.50;99.90;;;;;;5028793;28;20044;-27
2022/12/01 10:06:07;;;;;;;81.72;36.97;;;6.50;99.90;;;;;;5043265;28;20535;-27
2022/12/01 10:08:41;;;;;;;78.45;37.42;;;6.50;99.90;;;;;;5029967;28;20498;-27
2022/12/01 10:11:26;;;;;;;81.25;38.30;;;6.60;99.90;;;;;;5032382;28;20033;-27
2022/12/01 10:13:52;;;;;;;81.45;37.65;;;6.60;99.90;;;;;;5027575;28;20394;-27
2022/12/01 10:16:25;;;;;;;78.55;36.78;;;6.60;99.90;;;;;;5028984;28;20029;-27
2022/12/01 10:19:41;;;;;;;72.90;34.42;;;6.70;99.90;;;;;;5031894;28;20033;-27
2022/12/01 10:22:19;;;;;;;74.05;35.15;;;6.70;99.90;;;;;;5001879;28;20407;-27
2022/12/01 10:25:13;;;;;;;72.78;34.22;;;6.70;99.90;;;;;;5027278;28;20044;-27
2022/12/01 10:27:39;;;;;;;73.60;36.33;;;6.70;99.90;;;;;;5045409;28;20452;-27
2022/12/01 10:30:15;;;;;;;72.78;37.08;;;6.70;99.90;;;;;;5048024;28;20132;-27
2022/12/01 10:32:50;;;;;;;67.75;33.35;;;6.70;99.90;;;;;;5024282;28;20037;-27
2022/12/01 10:35:19;;;;;;;75.18;36.00;;;6.70;99.90;;;;;;5029006;28;20064;-27
2022/12/01 10:37:47;;;;;;;70.22;34.75;;;6.80;99.90;;;;;;5032242;28;20037;-27
2022/12/01 10:40:15;;;;;;;69.03;35.05;;;6.80;99.90;;;;;;5028101;28;20088;-27
2022/12/01 10:42:44;;;;;;;72.32;34.88;;;6.80;99.90;;;;;;5031451;28;20038;-27
2022/12/01 10:45:23;;;;;;;75.68;36.72;;;6.80;99.90;;;;;;5030261;28;20437;-27
2022/12/01 10:48:11;;;;;;;65.38;33.80;;;6.80;99.90;;;;;;5026090;28;20041;-28
2022/12/01 10:50:38;;;;;;;68.80;34.58;;;6.90;99.90;;;;;;5027194;28;20414;-27
2022/12/01 10:53:03;;;;;;;68.22;34.90;;;6.90;99.90;;;;;;5028961;28;20044;-27
2022/12/01 10:55:38;;;;;;;68.47;35.15;;;7.00;99.90;;;;;;5042979;28;20034;-27
2022/12/01 10:58:12;;;;;;;69.75;33.88;;;7.00;99.90;;;;;;5012305;28;20037;-27
2022/12/01 11:00:41;;;;;;;67.35;33.65;;;7.00;99.90;;;;;;5046518;28;20037;-28
2022/12/01 11:03:21;;;;;;;70.43;34.25;;;7.10;99.90;;;;;;5029873;28;20124;-28
2022/12/01 11:05:56;;;;;;;67.53;33.08;;;7.10;99.90;;;;;;5031472;28;20037;-27
2022/12/01 11:08:45;;;;;;;69.80;34.47;;;7.10;99.90;;;;;;5022007;28;20399;-27
2022/12/01 11:11:23;;;;;;;63.53;33.65;;;7.10;99.90;;;;;;5030794;28;20080;-27
2022/12/01 11:13:50;;;;;;;69.10;34.45;;;7.10;99.90;;;;;;5024760;28;20090;-27
2022/12/01 11:16:52;;;;;;;61.85;33.42;;;7.20;99.90;;;;;;5044765;28;20041;-27
2022/12/01 11:19:31;;;;;;;58.30;31.75;;;7.20;99.90;;;;;;4987595;28;20046;-27
2022/12/01 11:22:25;;;;;;;60.40;32.42;;;7.30;99.90;;;;;;5021876;28;20076;-27
2022/12/01 11:25:01;;;;;;;62.40;32.90;;;7.20;99.90;;;;;;5026539;28;20049;-27
2022/12/01 11:27:43;;;;;;;61.67;33.53;;;7.20;99.90;;;;;;5031006;28;20038;-27
2022/12/01 11:30:23;;;;;;;59.90;31.40;;;7.10;99.90;;;;;;5047669;28;20040;-27
2022/12/01 11:32:55;;;;;;;63.15;32.58;;;7.10;99.90;;;;;;5020105;28;20041;-27
2022/12/01 11:35:23;;;;;;;62.22;32.58;;;7.10;99.90;;;;;;5020746;28;20033;-27
2022/12/01 11:37:55;;;;;;;62.22;31.60;;;7.20;99.90;;;;;;5041559;28;20076;-27
2022/12/01 11:40:27;;;;;;;57.08;31.42;;;7.20;99.90;;;;;;5038691;28;20113;-27
2022/12/01 11:43:03;;;;;;;60.58;31.90;;;7.20;99.90;;;;;;5047460;28;20029;-27
2022/12/01 11:45:38;;;;;;;60.55;31.48;;;7.20;99.90;;;;;;5029024;28;20033;-27
2022/12/01 11:48:19;;;;;;;57.53;31.27;;;7.20;99.90;;;;;;5020150;28;20038;-28
2022/12/01 11:50:59;;;;;;;58.58;31.67;;;7.30;99.90;;;;;;5030199;28;20043;-27
2022/12/01 11:53:42;;;;;;;59.28;32.35;;;7.30;99.90;;;;;;5030497;28;20033;-28
2022/12/01 11:56:22;;;;;;;62.05;31.33;;;7.30;99.90;;;;;;5020189;28;20038;-27
2022/12/01 11:58:59;;;;;;;56.85;30.98;;;7.30;99.90;;;;;;5029544;28;20453;-27
2022/12/01 12:02:03;;;;;;;60.00;33.08;;;7.30;99.90;;;;;;5014994;28;20454;-27
2022/12/01 12:04:47;;;;;;;58.25;30.38;;;7.20;99.90;;;;;;5024539;28;20500;-27
2022/12/01 12:07:22;;;;;;;61.63;32.20;;;7.30;99.90;;;;;;5022359;28;20046;-27
2022/12/01 12:10:18;;;;;;;59.03;30.08;;;7.30;99.90;;;;;;5021517;28;20037;-27
2022/12/01 12:13:31;;;;;;;60.08;31.88;;;7.30;99.90;;;;;;5028178;28;20041;-27
2022/12/01 12:16:04;;;;;;;61.10;31.40;;;7.40;99.90;;;;;;5028698;28;20033;-27
2022/12/01 12:18:54;;;;;;;57.23;30.73;;;7.30;99.90;;;;;;5042396;28;20533;-27
2022/12/01 12:21:30;;;;;;;57.65;31.08;;;7.30;99.90;;;;;;5023417;28;20038;-27
2022/12/01 12:24:18;;;;;;;59.90;32.28;;;7.30;99.90;;;;;;5025602;28;20033;-27
2022/12/01 12:27:10;;;;;;;59.35;30.05;;;7.30;99.90;;;;;;5023786;28;20037;-27
2022/12/01 12:29:50;;;;;;;57.20;30.65;;;7.30;99.90;;;;;;5027249;28;20064;-27
2022/12/01 12:32:31;;;;;;;56.83;29.70;;;7.30;99.90;;;;;;5026902;28;20120;-27
2022/12/01 12:35:10;;;;;;;55.35;30.55;;;7.30;99.90;;;;;;5028624;28;20056;-27
2022/12/01 12:37:57;;;;;;;52.20;29.10;;;7.40;99.90;;;;;;5026731;28;20122;-27
2022/12/01 12:40:46;;;;;;;52.65;28.88;;;7.40;99.90;;;;;;5039157;28;20042;-27
2022/12/01 12:43:18;;;;;;;59.92;31.92;;;7.30;99.90;;;;;;5045677;28;20467;-27
2022/12/01 12:45:58;;;;;;;50.53;28.67;;;7.30;99.90;;;;;;5029485;28;20446;-27
2022/12/01 12:48:52;;;;;;;50.55;28.67;;;7.30;99.90;;;;;;5022882;28;20048;-27
2022/12/01 12:51:24;;;;;;;;;;;7.30;99.90;;;;;;5022273;28;20033;-27
2022/12/01 12:54:22;;;;;;;51.28;27.83;;;7.20;99.90;;;;;;5025427;28;19917;-27
2022/12/01 12:56:55;;;;;;;50.53;28.92;;;7.30;99.90;;;;;;5026535;28;20048;-27
2022/12/01 12:59:52;;;;;;;49.58;27.75;;;7.20;99.90;;;;;;5045974;28;20144;-27